createdAt,value
2018-09-15T00:03:20.447Z,18.10
2018-09-15T00:08:25.372Z,15.50
2018-09-15T00:13:30.458Z,14.47
2018-09-15T00:18:35.402Z,18.73
2018-09-15T00:23:40.340Z,14.03
2018-09-15T00:28:45.309Z,15.53
2018-09-15T00:33:50.330Z,16.63
2018-09-15T00:38:55.211Z,18.03
2018-09-15T00:44:00.141Z,17.00
2018-09-15T00:49:05.235Z,14.50
2018-09-15T00:54:10.125Z,20.93
2018-09-15T00:59:15.220Z,20.97
2018-09-15T01:04:20.267Z,18.07
2018-09-15T01:09:25.313Z,16.23
2018-09-15T01:14:30.540Z,15.17
2018-09-15T01:19:36.590Z,15.50
2018-09-15T01:24:42.539Z,15.93
2018-09-15T01:29:47.622Z,16.67
2018-09-15T01:34:52.533Z,22.43
2018-09-15T01:39:57.505Z,18.40
2018-09-15T01:45:02.455Z,14.50
2018-09-15T01:50:07.585Z,15.90
2018-09-15T01:55:12.530Z,18.27
2018-09-15T02:00:17.642Z,16.90
2018-09-15T02:05:22.744Z,15.97
2018-09-15T02:10:27.735Z,22.97
2018-09-15T02:15:32.725Z,14.33
2018-09-15T02:20:37.676Z,13.93
2018-09-15T02:25:42.619Z,11.87
2018-09-15T02:30:47.600Z,10.80
2018-09-15T02:35:52.721Z,9.00
2018-09-15T02:40:57.866Z,9.57
2018-09-15T02:46:02.769Z,9.57
2018-09-15T02:51:07.788Z,8.57
2018-09-15T02:56:12.723Z,8.50
2018-09-15T03:01:17.652Z,9.90
2018-09-15T03:06:22.549Z,12.27
2018-09-15T03:11:27.454Z,14.83
2018-09-15T03:16:32.521Z,12.53
2018-09-15T03:21:37.484Z,11.87
2018-09-15T03:26:43.028Z,9.33
2018-09-15T03:31:48.026Z,9.20
2018-09-15T03:36:54.285Z,10.53
2018-09-15T03:41:59.347Z,9.03
2018-09-15T03:47:04.349Z,9.93
2018-09-15T03:52:09.377Z,11.50
2018-09-15T03:57:14.349Z,8.23
2018-09-15T04:02:19.891Z,8.30
2018-09-15T04:07:24.837Z,8.63
2018-09-15T04:12:29.720Z,12.60
2018-09-15T04:17:34.772Z,9.30
2018-09-15T04:22:39.704Z,7.27
2018-09-15T04:27:44.861Z,6.07
2018-09-15T04:32:49.896Z,8.60
2018-09-15T04:37:54.827Z,8.53
2018-09-15T04:43:00.104Z,6.40
2018-09-15T04:48:05.589Z,9.43
2018-09-15T04:53:10.566Z,6.67
2018-09-15T04:58:17.122Z,8.33
2018-09-15T05:03:22.094Z,10.93
2018-09-15T05:08:27.457Z,9.63
2018-09-15T05:13:32.490Z,8.13
2018-09-15T05:18:37.541Z,8.27
2018-09-15T05:23:42.630Z,9.20
2018-09-15T05:28:47.784Z,8.47
2018-09-15T05:33:52.782Z,11.90
2018-09-15T05:38:58.271Z,9.07
2018-09-15T05:44:03.203Z,8.43
2018-09-15T05:49:08.283Z,7.30
2018-09-15T05:54:13.312Z,10.93
2018-09-15T05:59:18.315Z,15.27
2018-09-15T06:04:23.548Z,8.63
2018-09-15T06:09:28.483Z,10.93
2018-09-15T06:14:33.428Z,8.83
2018-09-15T06:19:38.533Z,10.53
2018-09-15T06:24:43.522Z,9.33
2018-09-15T06:29:48.412Z,10.53
2018-09-15T06:34:53.611Z,10.40
2018-09-15T06:39:58.512Z,11.77
2018-09-15T06:45:03.861Z,11.00
2018-09-15T06:50:08.944Z,14.30
2018-09-15T06:55:14.676Z,8.97
2018-09-15T07:00:19.547Z,11.20
2018-09-15T07:05:24.516Z,9.03
2018-09-15T07:10:29.544Z,4.80
2018-09-15T07:15:35.473Z,4.33
2018-09-15T07:20:40.369Z,6.93
2018-09-15T07:25:45.446Z,4.40
2018-09-15T07:30:51.189Z,4.07
2018-09-15T07:35:56.127Z,4.97
2018-09-15T07:41:01.821Z,5.83
2018-09-15T07:46:06.893Z,4.40
2018-09-15T07:51:11.846Z,4.60
2018-09-15T07:56:17.814Z,8.80
2018-09-15T08:01:22.793Z,5.47
2018-09-15T08:06:27.797Z,5.13
2018-09-15T08:11:32.935Z,9.17
2018-09-15T08:16:37.929Z,9.47
2018-09-15T08:21:42.937Z,8.03
2018-09-15T08:26:48.075Z,7.27
2018-09-15T08:31:53.076Z,4.83
2018-09-15T08:36:58.070Z,5.03
2018-09-15T08:42:03.007Z,11.60
2018-09-15T08:47:08.081Z,5.83
2018-09-15T08:52:13.047Z,5.93
2018-09-15T08:57:18.203Z,5.70
2018-09-15T09:02:24.172Z,5.57
2018-09-15T09:07:29.213Z,5.43
2018-09-15T09:12:34.318Z,11.57
2018-09-15T09:17:39.575Z,6.80
2018-09-15T09:22:50.899Z,4.17
2018-09-15T09:27:59.445Z,6.70
2018-09-15T09:33:04.588Z,6.13
2018-09-15T09:38:09.689Z,5.73
2018-09-15T09:43:14.596Z,4.13
2018-09-15T09:48:20.031Z,6.20
2018-09-15T09:53:25.147Z,4.37
2018-09-15T09:58:30.150Z,7.10
2018-09-15T10:03:35.227Z,4.33
2018-09-15T10:08:40.212Z,5.80
2018-09-15T10:13:45.040Z,3.40
2018-09-15T10:18:50.011Z,5.77
2018-09-15T10:23:55.053Z,8.30
2018-09-15T10:28:59.993Z,3.83
2018-09-15T10:34:04.936Z,4.77
2018-09-15T10:39:10.670Z,4.35
2018-09-15T10:44:15.636Z,3.87
2018-09-15T10:49:21.257Z,6.40
2018-09-15T10:54:26.278Z,5.42
2018-09-15T10:59:32.530Z,5.42
2018-09-15T11:04:37.730Z,3.83
2018-09-15T11:09:42.975Z,4.53
2018-09-15T11:14:49.322Z,5.72
2018-09-15T11:19:54.431Z,5.22
2018-09-15T11:24:59.463Z,4.00
2018-09-15T11:30:04.377Z,3.47
2018-09-15T11:35:09.370Z,5.97
2018-09-15T11:40:14.450Z,3.67
2018-09-15T11:45:19.401Z,4.73
2018-09-15T11:50:24.230Z,7.53
2018-09-15T11:55:29.191Z,4.53
2018-09-15T12:00:36.726Z,3.80
2018-09-15T12:05:41.577Z,5.73
2018-09-15T12:10:47.467Z,5.17
2018-09-15T12:15:52.508Z,9.50
2018-09-15T12:20:57.521Z,4.57
2018-09-15T12:26:03.181Z,4.43
2018-09-15T12:31:09.139Z,4.43
2018-09-15T12:36:14.090Z,4.27
2018-09-15T12:41:19.296Z,6.97
2018-09-15T12:46:24.050Z,7.70
2018-09-15T12:51:27.459Z,4.40
2018-09-15T12:56:30.896Z,5.07
2018-09-15T13:01:34.338Z,5.07
2018-09-15T13:06:37.725Z,5.57
2018-09-15T13:11:42.044Z,6.23
2018-09-15T13:16:45.534Z,3.60
2018-09-15T13:21:48.954Z,4.53
2018-09-15T13:26:52.423Z,5.23
2018-09-15T13:31:55.939Z,3.87
2018-09-15T13:36:59.858Z,4.67
2018-09-15T13:42:03.299Z,3.83
2018-09-15T13:47:06.591Z,4.57
2018-09-15T13:52:10.069Z,9.87
2018-09-15T13:57:13.300Z,7.50
2018-09-15T14:02:16.592Z,5.80
2018-09-15T14:07:19.836Z,4.77
2018-09-15T14:12:23.916Z,6.80
2018-09-15T14:17:27.389Z,9.40
2018-09-15T14:22:30.824Z,6.27
2018-09-15T14:27:34.779Z,6.53
2018-09-15T14:32:37.987Z,4.37
2018-09-15T14:37:47.979Z,4.37
2018-09-15T14:42:51.284Z,5.90
2018-09-15T14:47:55.379Z,9.37
2018-09-15T14:52:58.782Z,7.10
2018-09-15T14:58:02.040Z,6.17
2018-09-15T15:03:07.454Z,4.33
2018-09-15T15:08:10.903Z,5.27
2018-09-15T15:13:15.260Z,5.80
2018-09-15T15:18:18.599Z,4.37
2018-09-15T15:23:21.875Z,2.60
2018-09-15T15:28:25.281Z,2.90
2018-09-15T15:33:28.524Z,5.80
2018-09-15T15:38:32.044Z,6.80
2018-09-15T15:43:35.479Z,5.63
2018-09-15T15:48:38.911Z,5.17
2018-09-15T15:53:42.294Z,8.57
2018-09-15T15:58:46.279Z,10.70
2018-09-15T16:03:50.229Z,7.73
2018-09-15T16:08:53.606Z,4.33
2018-09-15T16:13:56.966Z,4.07
2018-09-15T16:19:00.398Z,3.43
2018-09-15T16:24:04.148Z,5.00
2018-09-15T16:29:07.621Z,5.73
2018-09-15T16:34:10.950Z,4.30
2018-09-15T16:39:14.362Z,7.00
2018-09-15T16:44:17.781Z,9.20
2018-09-15T16:49:21.079Z,5.90
2018-09-15T16:54:24.404Z,3.63
2018-09-15T16:59:28.594Z,5.13
2018-09-15T17:04:32.154Z,7.10
2018-09-15T17:09:35.701Z,6.37
2018-09-15T17:14:39.563Z,5.63
2018-09-15T17:19:42.995Z,6.43
2018-09-15T17:24:46.399Z,9.63
2018-09-15T17:29:49.835Z,7.10
2018-09-15T17:34:53.197Z,4.67
2018-09-15T17:39:58.662Z,5.27
2018-09-15T17:45:01.987Z,3.80
2018-09-15T17:50:05.511Z,20.53
2018-09-15T17:55:08.789Z,9.87
2018-09-15T18:00:12.160Z,8.07
2018-09-15T18:05:15.744Z,8.10
2018-09-15T18:10:19.220Z,8.30
2018-09-15T18:15:22.739Z,8.20
2018-09-15T18:20:26.534Z,8.77
2018-09-15T18:25:29.961Z,9.50
2018-09-15T18:30:33.510Z,21.70
2018-09-15T18:35:36.924Z,8.27
2018-09-15T18:40:41.271Z,8.80
2018-09-15T18:45:44.653Z,5.30
2018-09-15T18:50:48.030Z,9.70
2018-09-15T18:55:51.934Z,5.50
2018-09-15T19:00:56.308Z,9.00
2018-09-15T19:06:00.476Z,7.07
2018-09-15T19:11:04.534Z,8.33
2018-09-15T19:16:08.369Z,7.43
2018-09-15T19:21:12.422Z,7.43
2018-09-15T19:26:16.833Z,8.33
2018-09-15T19:31:21.047Z,7.00
2018-09-15T19:36:24.931Z,13.13
2018-09-15T19:41:29.136Z,4.97
2018-09-15T19:46:33.493Z,8.00
2018-09-15T19:51:36.763Z,9.10
2018-09-15T19:56:40.037Z,5.60
2018-09-15T20:01:44.043Z,6.00
2018-09-15T20:06:47.432Z,5.00
2018-09-15T20:11:53.540Z,9.07
2018-09-15T20:16:55.427Z,4.77
2018-09-15T20:21:57.334Z,4.90
2018-09-15T20:27:01.536Z,8.37
2018-09-15T20:32:06.033Z,7.93
2018-09-15T20:37:09.357Z,8.47
2018-09-15T20:42:12.644Z,12.97
2018-09-15T20:47:16.512Z,6.10
2018-09-15T20:52:20.113Z,12.03
2018-09-15T20:57:24.635Z,8.00
2018-09-15T21:02:28.775Z,6.37
2018-09-15T21:07:32.659Z,4.47
2018-09-15T21:12:37.301Z,7.83
2018-09-15T21:17:41.736Z,5.73
2018-09-15T21:22:45.093Z,7.40
2018-09-15T21:27:49.495Z,9.37
2018-09-15T21:32:54.127Z,5.70
2018-09-15T21:37:57.522Z,5.67
2018-09-15T21:43:01.344Z,8.27
2018-09-15T21:48:05.823Z,6.33
2018-09-15T21:53:09.202Z,6.53
2018-09-15T21:58:13.540Z,6.30
2018-09-15T22:03:21.957Z,6.20
2018-09-15T22:08:25.242Z,4.70
2018-09-15T22:13:28.512Z,7.60
2018-09-15T22:18:31.987Z,8.47
2018-09-15T22:23:35.343Z,7.67
2018-09-15T22:28:38.608Z,5.33
2018-09-15T22:33:42.074Z,6.00
2018-09-15T22:38:45.535Z,4.67
2018-09-15T22:43:48.933Z,5.47
2018-09-15T22:48:52.336Z,9.53
2018-09-15T22:53:55.793Z,6.90
2018-09-15T22:58:59.292Z,6.63
2018-09-15T23:04:07.920Z,9.17
2018-09-15T23:09:11.990Z,7.30
2018-09-15T23:14:15.238Z,4.73
2018-09-15T23:19:18.613Z,4.80
2018-09-15T23:24:21.898Z,4.90
2018-09-15T23:29:25.323Z,6.47
2018-09-15T23:34:28.745Z,7.27
2018-09-15T23:39:32.187Z,7.03
2018-09-15T23:44:35.472Z,5.97
2018-09-15T23:49:38.721Z,8.10
2018-09-15T23:54:42.071Z,6.00
2018-09-15T23:59:45.322Z,7.13
